createdAt,value
2022-11-26T00:01:22.040Z,99753.03
2022-11-26T00:03:53.283Z,99754.50
2022-11-26T00:06:31.715Z,99757.94
2022-11-26T00:08:59.062Z,99757.44
2022-11-26T00:11:25.644Z,99757.31
2022-11-26T00:13:52.447Z,99758.88
2022-11-26T00:16:19.189Z,99764.19
2022-11-26T00:18:45.813Z,99761.75
2022-11-26T00:21:23.044Z,99762.53
2022-11-26T00:23:50.516Z,99765.63
2022-11-26T00:26:19.639Z,99760.78
2022-11-26T00:29:04.155Z,99768.72
2022-11-26T00:31:30.776Z,99767.22
2022-11-26T00:33:57.386Z,99776.00
2022-11-26T00:36:28.941Z,99782.31
2022-11-26T00:39:17.833Z,99787.59
2022-11-26T00:41:48.441Z,99792.22
2022-11-26T00:44:19.588Z,99784.88
2022-11-26T00:46:46.888Z,99789.53
2022-11-26T00:49:13.511Z,99788.53
2022-11-26T00:51:40.575Z,99793.75
2022-11-26T00:54:11.785Z,99793.56
2022-11-26T00:56:39.898Z,99794.84
2022-11-26T00:59:06.653Z,99808.41
2022-11-26T01:01:33.329Z,99811.81
2022-11-26T01:04:00.010Z,99810.63
2022-11-26T01:06:32.771Z,99808.09
2022-11-26T01:08:59.990Z,99813.97
2022-11-26T01:11:26.834Z,99817.16
2022-11-26T01:13:54.896Z,99815.84
2022-11-26T01:16:30.894Z,99821.31
2022-11-26T01:18:59.893Z,99819.63
2022-11-26T01:21:28.393Z,99822.81
2022-11-26T01:23:55.023Z,99821.31
2022-11-26T01:26:24.438Z,99817.91
2022-11-26T01:28:51.678Z,99827.63
2022-11-26T01:31:21.620Z,99827.63
2022-11-26T01:33:48.692Z,99825.31
2022-11-26T01:36:30.566Z,99830.31
2022-11-26T01:39:01.423Z,99832.78
2022-11-26T01:42:05.271Z,99830.44
2022-11-26T01:44:34.282Z,99838.84
2022-11-26T01:47:02.027Z,99833.91
2022-11-26T01:49:31.561Z,99833.72
2022-11-26T01:52:01.052Z,99839.06
2022-11-26T01:54:28.126Z,99846.47
2022-11-26T01:56:58.571Z,99845.41
2022-11-26T01:59:38.568Z,99850.13
2022-11-26T02:02:05.529Z,99858.31
2022-11-26T02:04:39.577Z,99855.25
2022-11-26T02:07:06.399Z,99863.22
2022-11-26T02:09:33.275Z,99866.31
2022-11-26T02:12:00.277Z,99861.16
2022-11-26T02:14:31.022Z,99870.94
2022-11-26T02:17:06.037Z,99863.44
2022-11-26T02:19:54.618Z,99866.41
2022-11-26T02:22:50.723Z,99875.56
2022-11-26T02:25:39.115Z,99874.53
2022-11-26T02:28:22.988Z,99870.97
2022-11-26T02:30:56.855Z,99878.13
2022-11-26T02:33:48.518Z,99882.72
2022-11-26T02:36:25.046Z,99875.75
2022-11-26T02:38:51.702Z,99889.91
2022-11-26T02:41:18.268Z,99883.47
2022-11-26T02:43:45.138Z,99894.59
2022-11-26T02:46:16.014Z,99904.00
2022-11-26T02:48:46.944Z,99893.28
2022-11-26T02:51:20.339Z,99901.38
2022-11-26T02:53:50.313Z,99908.03
2022-11-26T02:56:23.620Z,99905.03
2022-11-26T02:58:52.240Z,99914.88
2022-11-26T03:01:32.616Z,99908.53
2022-11-26T03:04:05.415Z,99911.41
2022-11-26T03:06:34.322Z,99910.81
2022-11-26T03:09:01.043Z,99906.91
2022-11-26T03:11:27.859Z,99918.50
2022-11-26T03:13:54.503Z,99924.19
2022-11-26T03:16:21.077Z,99927.84
2022-11-26T03:18:47.745Z,99920.78
2022-11-26T03:21:14.288Z,99932.44
2022-11-26T03:23:41.176Z,99934.22
2022-11-26T03:26:07.891Z,99937.16
2022-11-26T03:28:34.547Z,99939.09
2022-11-26T03:31:01.114Z,99944.84
2022-11-26T03:33:27.751Z,99940.25
2022-11-26T03:35:54.286Z,99947.50
2022-11-26T03:38:20.851Z,99951.88
2022-11-26T03:40:58.830Z,99951.06
2022-11-26T03:43:25.415Z,99967.31
2022-11-26T03:45:52.092Z,99957.88
2022-11-26T03:48:18.720Z,99958.72
2022-11-26T03:50:45.446Z,99960.78
2022-11-26T03:53:12.022Z,99962.38
2022-11-26T03:55:38.608Z,99962.59
2022-11-26T03:58:05.160Z,99953.28
2022-11-26T04:00:31.742Z,99954.34
2022-11-26T04:02:58.325Z,99969.00
2022-11-26T04:05:24.876Z,99961.00
2022-11-26T04:07:51.494Z,99969.84
2022-11-26T04:10:18.161Z,99976.59
2022-11-26T04:12:44.748Z,99969.97
2022-11-26T04:15:11.372Z,99973.50
2022-11-26T04:17:37.939Z,99983.75
2022-11-26T04:20:05.721Z,99984.59
2022-11-26T04:22:32.311Z,99977.78
2022-11-26T04:24:58.901Z,99980.22
2022-11-26T04:27:25.440Z,99992.44
2022-11-26T04:29:52.057Z,99985.38
2022-11-26T04:32:18.828Z,99993.91
2022-11-26T04:34:45.407Z,99996.13
2022-11-26T04:37:11.964Z,100000.53
2022-11-26T04:39:38.517Z,99996.91
2022-11-26T04:42:05.100Z,100013.47
2022-11-26T04:44:31.794Z,100013.56
2022-11-26T04:46:58.481Z,100017.06
2022-11-26T04:49:25.168Z,100027.88
2022-11-26T04:51:51.704Z,100030.88
2022-11-26T04:54:18.306Z,100027.28
2022-11-26T04:56:44.834Z,100035.16
2022-11-26T04:59:11.430Z,100031.50
2022-11-26T05:01:38.100Z,100042.88
2022-11-26T05:04:04.990Z,100056.75
2022-11-26T05:06:31.550Z,100056.97
2022-11-26T05:08:58.181Z,100054.75
2022-11-26T05:11:24.975Z,100057.50
2022-11-26T05:13:51.576Z,100057.94
2022-11-26T05:16:18.277Z,100058.66
2022-11-26T05:18:44.922Z,100059.44
2022-11-26T05:21:11.488Z,100065.94
2022-11-26T05:23:38.059Z,100067.22
2022-11-26T05:26:04.680Z,100077.91
2022-11-26T05:28:31.277Z,100075.56
2022-11-26T05:31:02.700Z,100078.91
2022-11-26T05:33:29.422Z,100075.88
2022-11-26T05:35:56.620Z,100079.59
2022-11-26T05:38:23.943Z,100078.53
2022-11-26T05:40:50.671Z,100084.66
2022-11-26T05:43:17.498Z,100087.44
2022-11-26T05:45:44.399Z,100086.34
2022-11-26T05:48:11.334Z,100094.72
2022-11-26T05:50:38.112Z,100089.38
2022-11-26T05:53:04.981Z,100081.75
2022-11-26T05:55:32.088Z,100086.25
2022-11-26T05:57:58.648Z,100091.91
2022-11-26T06:00:25.259Z,100098.75
2022-11-26T06:02:51.860Z,100097.59
2022-11-26T06:05:18.885Z,100108.81
2022-11-26T06:07:45.470Z,100113.41
2022-11-26T06:10:12.973Z,100115.75
2022-11-26T06:12:39.706Z,100114.25
2022-11-26T06:15:06.765Z,100115.22
2022-11-26T06:17:33.341Z,100123.56
2022-11-26T06:19:59.971Z,100129.84
2022-11-26T06:22:26.554Z,100123.03
2022-11-26T06:24:53.097Z,100127.53
2022-11-26T06:27:19.632Z,100127.09
2022-11-26T06:29:46.145Z,100132.00
2022-11-26T06:32:12.698Z,100135.94
2022-11-26T06:34:40.884Z,100141.72
2022-11-26T06:37:09.080Z,100147.19
2022-11-26T06:39:35.649Z,100150.06
2022-11-26T06:42:02.203Z,100152.63
2022-11-26T06:44:28.835Z,100154.03
2022-11-26T06:46:55.375Z,100157.44
2022-11-26T06:49:21.970Z,100161.38
2022-11-26T06:51:48.565Z,100164.59
2022-11-26T06:54:15.123Z,100173.09
2022-11-26T06:56:41.658Z,100173.91
2022-11-26T06:59:08.314Z,100183.97
2022-11-26T07:01:34.923Z,100179.47
2022-11-26T07:04:01.524Z,100176.81
2022-11-26T07:06:30.884Z,100177.16
2022-11-26T07:09:01.995Z,100187.38
2022-11-26T07:11:28.597Z,100191.56
2022-11-26T07:13:55.464Z,100194.13
2022-11-26T07:16:22.356Z,100196.16
2022-11-26T07:18:57.781Z,100190.81
2022-11-26T07:21:29.037Z,100197.03
2022-11-26T07:23:55.747Z,100199.34
2022-11-26T07:26:23.674Z,100198.19
2022-11-26T07:28:50.638Z,100196.59
2022-11-26T07:31:19.865Z,100198.31
2022-11-26T07:33:47.398Z,100206.22
2022-11-26T07:36:22.753Z,100215.50
2022-11-26T07:38:49.457Z,100217.56
2022-11-26T07:41:19.414Z,100216.78
2022-11-26T07:43:46.740Z,100208.88
2022-11-26T07:46:17.828Z,100222.69
2022-11-26T07:48:44.554Z,100226.19
2022-11-26T07:51:20.523Z,100228.88
2022-11-26T07:53:47.620Z,100229.59
2022-11-26T07:56:14.395Z,100232.19
2022-11-26T07:58:41.025Z,100230.06
2022-11-26T08:01:12.930Z,100232.19
2022-11-26T08:03:41.722Z,100235.31
2022-11-26T08:06:10.396Z,100242.69
2022-11-26T08:08:37.048Z,100246.84
2022-11-26T08:11:04.862Z,100252.44
2022-11-26T08:13:31.603Z,100248.25
2022-11-26T08:15:58.264Z,100253.16
2022-11-26T08:18:24.940Z,100256.25
2022-11-26T08:20:58.515Z,100255.00
2022-11-26T08:23:25.810Z,100258.31
2022-11-26T08:26:20.578Z,100259.47
2022-11-26T08:28:39.245Z,100265.06
2022-11-26T08:31:09.840Z,100253.28
2022-11-26T08:33:36.690Z,100259.94
2022-11-26T08:36:08.370Z,100270.09
2022-11-26T08:38:35.760Z,100266.88
2022-11-26T08:41:13.050Z,100267.63
2022-11-26T08:44:05.125Z,100271.06
2022-11-26T08:46:27.297Z,100270.41
2022-11-26T08:48:57.156Z,100278.56
2022-11-26T08:51:25.309Z,100284.94
2022-11-26T08:53:52.259Z,100283.25
2022-11-26T08:56:18.931Z,100284.28
2022-11-26T08:58:46.519Z,100285.19
2022-11-26T09:01:17.790Z,100293.53
2022-11-26T09:03:47.137Z,100300.72
2022-11-26T09:06:14.168Z,100301.22
2022-11-26T09:08:59.151Z,100302.13
2022-11-26T09:11:27.078Z,100305.94
2022-11-26T09:13:53.765Z,100312.16
2022-11-26T09:16:21.926Z,100307.88
2022-11-26T09:18:48.625Z,100313.56
2022-11-26T09:21:15.479Z,100317.50
2022-11-26T09:23:42.185Z,100320.38
2022-11-26T09:26:09.248Z,100325.97
2022-11-26T09:28:35.831Z,100318.47
2022-11-26T09:31:02.944Z,100310.88
2022-11-26T09:33:30.059Z,100317.72
2022-11-26T09:36:07.349Z,100326.81
2022-11-26T09:38:35.010Z,100323.72
2022-11-26T09:41:10.548Z,100330.56
2022-11-26T09:44:03.433Z,100334.53
2022-11-26T09:47:11.547Z,100326.19
2022-11-26T09:50:06.800Z,100325.75
2022-11-26T09:53:01.984Z,100329.59
2022-11-26T09:55:34.549Z,100328.00
2022-11-26T09:58:25.373Z,100335.38
2022-11-26T10:00:57.011Z,100344.91
2022-11-26T10:03:33.329Z,100341.28
2022-11-26T10:06:07.695Z,100343.31
2022-11-26T10:08:55.341Z,100343.19
2022-11-26T10:11:29.481Z,100347.25
2022-11-26T10:14:13.956Z,100347.38
2022-11-26T10:16:46.390Z,100347.16
2022-11-26T10:19:15.830Z,100355.31
2022-11-26T10:22:00.707Z,100351.44
2022-11-26T10:24:27.268Z,100350.59
2022-11-26T10:26:55.141Z,100351.13
2022-11-26T10:29:26.349Z,100356.50
2022-11-26T10:31:58.837Z,100357.44
2022-11-26T10:34:39.477Z,100353.59
2022-11-26T10:37:06.432Z,100357.88
2022-11-26T10:39:33.058Z,100354.88
2022-11-26T10:42:20.581Z,100347.59
2022-11-26T10:44:49.057Z,100362.13
2022-11-26T10:47:27.487Z,100362.91
2022-11-26T10:50:46.167Z,100363.44
2022-11-26T10:53:06.920Z,100368.25
2022-11-26T10:55:39.652Z,100364.94
2022-11-26T10:58:14.359Z,100366.00
2022-11-26T11:00:50.062Z,100367.72
2022-11-26T11:03:51.777Z,100373.69
2022-11-26T11:06:20.889Z,100370.28
2022-11-26T11:08:50.230Z,100375.09
2022-11-26T11:11:28.483Z,100379.47
2022-11-26T11:13:55.911Z,100375.53
2022-11-26T11:16:37.273Z,100379.28
2022-11-26T11:19:19.046Z,100386.03
2022-11-26T11:21:48.416Z,100383.25
2022-11-26T11:24:23.161Z,100380.44
2022-11-26T11:26:56.328Z,100389.69
2022-11-26T11:29:28.732Z,100384.22
2022-11-26T11:31:57.554Z,100383.59
2022-11-26T11:34:31.603Z,100393.63
2022-11-26T11:37:14.944Z,100398.97
2022-11-26T11:39:43.087Z,100395.16
2022-11-26T11:42:36.037Z,100395.56
2022-11-26T11:45:04.299Z,100397.06
2022-11-26T11:47:38.034Z,100396.66
2022-11-26T11:50:16.496Z,100394.63
2022-11-26T11:53:17.216Z,100404.88
2022-11-26T11:56:14.416Z,100404.03
2022-11-26T11:59:17.352Z,100399.09
2022-11-26T12:02:00.285Z,100398.66
2022-11-26T12:04:45.346Z,100404.56
2022-11-26T12:07:30.000Z,100403.16
2022-11-26T12:10:10.480Z,100401.19
2022-11-26T12:12:44.488Z,100402.22
2022-11-26T12:15:25.182Z,100403.72
2022-11-26T12:18:04.544Z,100404.22
2022-11-26T12:20:44.911Z,100403.59
2022-11-26T12:23:34.398Z,100403.91
2022-11-26T12:26:41.156Z,100405.38
2022-11-26T12:29:37.025Z,100404.00
2022-11-26T12:32:25.516Z,100406.56
2022-11-26T12:34:54.919Z,100406.56
2022-11-26T12:37:32.170Z,100409.78
2022-11-26T12:40:03.969Z,100411.47
2022-11-26T12:42:36.261Z,100405.47
2022-11-26T12:45:50.832Z,100403.19
2022-11-26T12:48:47.606Z,100408.75
2022-11-26T12:51:30.652Z,100407.34
2022-11-26T12:54:08.987Z,100415.41
2022-11-26T12:56:56.694Z,100411.38
2022-11-26T12:59:30.852Z,100412.88
2022-11-26T13:01:58.412Z,100406.53
2022-11-26T13:04:43.293Z,100415.63
2022-11-26T13:07:24.362Z,100419.88
2022-11-26T13:10:08.944Z,100420.41
2022-11-26T13:12:51.983Z,100421.94
2022-11-26T13:15:24.525Z,100412.81
2022-11-26T13:17:51.797Z,100413.78
2022-11-26T13:20:36.066Z,100421.34
2022-11-26T13:23:33.339Z,100418.22
2022-11-26T13:26:26.181Z,100420.25
2022-11-26T13:29:14.337Z,100423.47
2022-11-26T13:31:55.990Z,100425.06
2022-11-26T13:34:43.867Z,100426.91
2022-11-26T13:37:22.547Z,100422.63
2022-11-26T13:40:46.035Z,100423.84
2022-11-26T13:43:44.212Z,100428.66
2022-11-26T13:46:26.274Z,100424.91
2022-11-26T13:49:02.478Z,100422.84
2022-11-26T13:51:29.039Z,100414.50
2022-11-26T13:53:55.528Z,100418.91
2022-11-26T13:56:25.170Z,100418.47
2022-11-26T13:59:02.508Z,100422.13
2022-11-26T14:01:40.282Z,100431.47
2022-11-26T14:04:15.808Z,100426.19
2022-11-26T14:07:05.100Z,100429.31
2022-11-26T14:09:46.455Z,100438.84
2022-11-26T14:12:14.612Z,100429.09
2022-11-26T14:14:42.751Z,100438.84
2022-11-26T14:17:16.674Z,100432.09
2022-11-26T14:19:43.232Z,100437.25
2022-11-26T14:22:21.699Z,100438.31
2022-11-26T14:24:51.099Z,100439.19
2022-11-26T14:27:18.834Z,100429.44
2022-11-26T14:29:47.504Z,100439.25
2022-11-26T14:32:22.182Z,100430.19
2022-11-26T14:34:53.795Z,100436.16
2022-11-26T14:37:28.902Z,100438.09
2022-11-26T14:40:08.059Z,100440.97
2022-11-26T14:42:34.726Z,100442.34
2022-11-26T14:45:15.128Z,100444.06
2022-11-26T14:47:44.929Z,100443.72
2022-11-26T14:50:16.146Z,100440.09
2022-11-26T14:52:44.902Z,100443.81
2022-11-26T14:55:23.861Z,100444.25
2022-11-26T14:57:53.391Z,100443.13
2022-11-26T15:00:29.600Z,100448.00
2022-11-26T15:02:57.693Z,100448.88
2022-11-26T15:05:26.842Z,100451.88
2022-11-26T15:08:06.239Z,100456.66
2022-11-26T15:10:34.555Z,100454.84
2022-11-26T15:13:07.920Z,100455.56
2022-11-26T15:15:34.555Z,100456.56
2022-11-26T15:18:06.595Z,100452.06
2022-11-26T15:20:33.886Z,100447.59
2022-11-26T15:23:03.673Z,100457.72
2022-11-26T15:25:34.100Z,100451.88
2022-11-26T15:28:20.998Z,100461.69
2022-11-26T15:30:53.800Z,100451.72
2022-11-26T15:33:21.478Z,100461.84
2022-11-26T15:35:56.499Z,100457.19
2022-11-26T15:38:26.212Z,100459.41
2022-11-26T15:41:01.901Z,100468.25
2022-11-26T15:43:33.427Z,100461.91
2022-11-26T15:46:04.547Z,100469.97
2022-11-26T15:48:53.910Z,100474.34
2022-11-26T15:51:38.586Z,100467.41
2022-11-26T15:54:30.877Z,100464.38
2022-11-26T15:57:18.038Z,100464.03
2022-11-26T15:59:48.413Z,100461.31
2022-11-26T16:02:20.681Z,100458.00
2022-11-26T16:04:50.353Z,100450.06
2022-11-26T16:07:24.708Z,100449.91
2022-11-26T16:10:08.652Z,100453.53
2022-11-26T16:12:35.957Z,100455.41
2022-11-26T16:15:13.419Z,100453.06
2022-11-26T16:17:42.879Z,100452.03
2022-11-26T16:20:28.603Z,100448.97
2022-11-26T16:22:59.393Z,100452.72
2022-11-26T16:25:25.823Z,100451.75
2022-11-26T16:28:14.582Z,100455.66
2022-11-26T16:30:43.907Z,100459.97
2022-11-26T16:33:10.629Z,100457.41
2022-11-26T16:35:46.557Z,100461.31
2022-11-26T16:38:26.851Z,100459.69
2022-11-26T16:40:54.260Z,100461.22
2022-11-26T16:43:21.598Z,100456.94
2022-11-26T16:45:50.266Z,100465.13
2022-11-26T16:48:26.576Z,100467.53
2022-11-26T16:50:54.674Z,100468.69
2022-11-26T16:53:21.917Z,100468.50
2022-11-26T16:55:49.978Z,100477.25
2022-11-26T16:58:35.148Z,100477.84
2022-11-26T17:01:02.483Z,100485.19
2022-11-26T17:06:31.096Z,100492.22
2022-11-26T17:08:57.762Z,100496.41
2022-11-26T17:11:24.461Z,100501.56
2022-11-26T17:13:51.206Z,100500.69
2022-11-26T17:16:20.269Z,100503.56
2022-11-26T17:18:47.930Z,100503.06
2022-11-26T17:21:14.710Z,100495.91
2022-11-26T17:23:41.392Z,100513.69
2022-11-26T17:26:28.215Z,100507.75
2022-11-26T17:28:54.860Z,100513.19
2022-11-26T17:31:21.487Z,100506.69
2022-11-26T17:33:48.143Z,100507.38
2022-11-26T17:36:18.060Z,100506.69
2022-11-26T17:38:45.415Z,100504.44
2022-11-26T17:41:12.624Z,100505.47
2022-11-26T17:43:39.927Z,100509.50
2022-11-26T17:46:14.909Z,100511.06
2022-11-26T17:48:41.486Z,100507.63
2022-11-26T17:51:11.240Z,100510.81
2022-11-26T17:53:39.128Z,100509.22
2022-11-26T17:56:06.031Z,100506.91
2022-11-26T17:58:32.574Z,100517.50
2022-11-26T18:00:59.178Z,100515.44
2022-11-26T18:03:26.443Z,100518.34
2022-11-26T18:05:53.051Z,100513.13
2022-11-26T18:08:19.689Z,100519.31
2022-11-26T18:10:46.855Z,100522.44
2022-11-26T18:13:13.530Z,100521.22
2022-11-26T18:15:40.118Z,100520.25
2022-11-26T18:18:07.583Z,100520.34
2022-11-26T18:20:34.312Z,100517.09
2022-11-26T18:23:01.399Z,100516.94
2022-11-26T18:25:29.180Z,100527.16
2022-11-26T18:27:56.164Z,100526.19
2022-11-26T18:30:24.290Z,100528.25
2022-11-26T18:32:50.936Z,100530.88
2022-11-26T18:35:17.773Z,100534.91
2022-11-26T18:37:44.626Z,100528.19
2022-11-26T18:40:15.209Z,100530.09
2022-11-26T18:42:41.916Z,100531.03
2022-11-26T18:45:11.688Z,100533.44
2022-11-26T18:47:38.422Z,100526.91
2022-11-26T18:50:06.304Z,100532.31
2022-11-26T18:52:32.861Z,100532.50
2022-11-26T18:54:59.967Z,100534.19
2022-11-26T18:57:26.592Z,100532.41
2022-11-26T18:59:53.239Z,100535.91
2022-11-26T19:02:19.821Z,100534.31
2022-11-26T19:04:46.389Z,100525.59
2022-11-26T19:07:14.187Z,100526.13
2022-11-26T19:09:41.860Z,100520.63
2022-11-26T19:12:08.837Z,100518.47
2022-11-26T19:14:35.475Z,100518.06
2022-11-26T19:17:02.305Z,100516.84
2022-11-26T19:19:28.995Z,100518.47
2022-11-26T19:22:00.914Z,100524.16
2022-11-26T19:24:29.071Z,100520.53
2022-11-26T19:26:56.125Z,100519.94
2022-11-26T19:29:22.827Z,100522.84
2022-11-26T19:31:49.402Z,100520.78
2022-11-26T19:34:16.535Z,100526.41
2022-11-26T19:36:45.713Z,100528.13
2022-11-26T19:39:12.243Z,100534.31
2022-11-26T19:41:38.822Z,100536.88
2022-11-26T19:44:06.928Z,100530.78
2022-11-26T19:46:36.841Z,100536.19
2022-11-26T19:49:03.437Z,100525.44
2022-11-26T19:51:29.995Z,100524.84
2022-11-26T19:53:57.624Z,100519.78
2022-11-26T19:56:30.342Z,100518.13
2022-11-26T19:58:58.884Z,100519.88
2022-11-26T20:01:29.864Z,100519.31
2022-11-26T20:03:58.028Z,100518.72
2022-11-26T20:06:28.986Z,100519.78
2022-11-26T20:08:58.251Z,100523.78
2022-11-26T20:11:25.313Z,100523.53
2022-11-26T20:13:51.873Z,100525.44
2022-11-26T20:16:21.087Z,100520.03
2022-11-26T20:18:48.643Z,100525.59
2022-11-26T20:21:22.015Z,100518.06
2022-11-26T20:23:49.925Z,100527.25
2022-11-26T20:26:25.246Z,100523.69
2022-11-26T20:28:53.018Z,100524.03
2022-11-26T20:31:23.560Z,100522.84
2022-11-26T20:33:54.372Z,100521.13
2022-11-26T20:36:22.939Z,100518.56
2022-11-26T20:38:54.604Z,100516.06
2022-11-26T20:41:22.021Z,100518.81
2022-11-26T20:43:53.532Z,100511.19
2022-11-26T20:46:24.225Z,100511.72
2022-11-26T20:48:50.880Z,100506.31
2022-11-26T20:51:20.111Z,100517.38
2022-11-26T20:53:47.100Z,100515.34
2022-11-26T20:56:15.184Z,100512.69
2022-11-26T20:58:42.382Z,100518.50
2022-11-26T21:01:17.130Z,100526.69
2022-11-26T21:03:43.918Z,100517.31
2022-11-26T21:06:13.755Z,100509.72
2022-11-26T21:08:41.201Z,100511.16
2022-11-26T21:11:08.681Z,100509.53
2022-11-26T21:13:36.757Z,100519.44
2022-11-26T21:16:05.901Z,100515.91
2022-11-26T21:18:33.912Z,100512.56
2022-11-26T21:21:01.108Z,100512.19
2022-11-26T21:23:27.763Z,100513.19
2022-11-26T21:25:54.418Z,100521.50
2022-11-26T21:28:21.077Z,100517.16
2022-11-26T21:30:47.771Z,100517.50
2022-11-26T21:33:14.538Z,100517.81
2022-11-26T21:35:41.112Z,100516.47
2022-11-26T21:38:07.765Z,100519.13
2022-11-26T21:40:34.328Z,100516.50
2022-11-26T21:43:00.877Z,100505.59
2022-11-26T21:45:30.039Z,100506.66
2022-11-26T21:47:56.676Z,100494.75
2022-11-26T21:50:23.418Z,100500.25
2022-11-26T21:52:49.975Z,100508.09
2022-11-26T21:55:16.608Z,100510.50
2022-11-26T21:57:43.161Z,100518.44
2022-11-26T22:00:10.355Z,100515.91
2022-11-26T22:02:36.964Z,100512.47
2022-11-26T22:05:03.756Z,100519.16
2022-11-26T22:07:30.675Z,100525.34
2022-11-26T22:09:57.520Z,100525.88
2022-11-26T22:12:24.093Z,100531.28
2022-11-26T22:14:50.738Z,100532.25
2022-11-26T22:17:17.303Z,100540.22
2022-11-26T22:19:43.915Z,100545.97
2022-11-26T22:22:10.537Z,100549.34
2022-11-26T22:24:37.071Z,100550.09
2022-11-26T22:27:03.753Z,100551.16
2022-11-26T22:29:30.343Z,100546.91
2022-11-26T22:31:56.922Z,100548.72
2022-11-26T22:34:24.621Z,100550.00
2022-11-26T22:36:51.406Z,100554.91
2022-11-26T22:39:18.756Z,100561.50
2022-11-26T22:41:46.820Z,100559.19
2022-11-26T22:44:14.427Z,100562.28
2022-11-26T22:46:41.336Z,100564.00
2022-11-26T22:49:12.238Z,100577.41
2022-11-26T22:51:38.863Z,100572.38
2022-11-26T22:54:07.251Z,100574.84
2022-11-26T22:56:36.790Z,100575.06
2022-11-26T22:59:04.585Z,100572.97
2022-11-26T23:01:33.309Z,100570.53
2022-11-26T23:04:01.528Z,100576.38
2022-11-26T23:06:30.375Z,100562.19
2022-11-26T23:08:58.643Z,100568.41
2022-11-26T23:11:26.711Z,100558.06
2022-11-26T23:13:53.991Z,100563.25
2022-11-26T23:16:22.609Z,100560.06
2022-11-26T23:18:50.318Z,100563.84
2022-11-26T23:21:22.519Z,100563.00
2022-11-26T23:23:50.125Z,100560.66
2022-11-26T23:26:26.201Z,100564.03
2022-11-26T23:28:54.015Z,100555.63
2022-11-26T23:31:23.371Z,100554.53
2022-11-26T23:33:51.539Z,100550.06
2022-11-26T23:36:18.890Z,100559.22
2022-11-26T23:38:45.491Z,100549.16
2022-11-26T23:41:12.092Z,100549.13
2022-11-26T23:43:39.367Z,100552.59
2022-11-26T23:46:24.983Z,100550.28
2022-11-26T23:48:51.937Z,100555.09
2022-11-26T23:51:21.577Z,100553.50
2022-11-26T23:53:49.301Z,100546.72
2022-11-26T23:56:19.261Z,100545.81
2022-11-26T23:58:49.982Z,100547.69
